Terminal Aerodrome Forecast
Issued by NWS Charleston, WV

Home | Current Version | Previous Version | Text Only | Print | Product List | Glossary On
Versions: 1 2 3 4 5 6 7 8 9 10 11 12 13 14 15 16 17 18 19 20 21 22
000
FTUS41 KRLX 182300
TAFEKN
TAF
KEKN 182338Z 1900/1924 00000KT P6SM BKN045
     FM190500 00000KT 4SM BR FEW001
     FM190700 00000KT 1/2SM FG BKN001
     FM191300 VRB03KT 1 1/2SM BR SCT010
     FM191400 VRB03KT P6SM SCT025
     FM191600 15005KT P6SM BKN030
     FM192100 17005KT P6SM BKN035
     FM192200 16005KT P6SM SCT035=

USA.gov is the U.S. government's official web portal to all federal, state and local government web resources and services.